createdAt,value
2014-08-26T14:07:49.764Z,100143
2014-08-26T14:08:07.951Z,100153
2014-08-26T14:08:26.154Z,100153
2014-08-26T14:08:44.342Z,100147
2014-08-26T14:09:02.532Z,100134
2014-08-26T14:09:20.735Z,100140
2014-08-26T14:09:38.923Z,100145
2014-08-26T14:09:57.127Z,100140
2014-08-26T14:10:15.330Z,100145
2014-08-26T14:10:33.518Z,100147
2014-08-26T14:10:51.705Z,100140
2014-08-26T14:11:09.910Z,100143
2014-08-26T14:11:28.113Z,100145
2014-08-26T14:11:46.301Z,100143
2014-08-26T14:12:04.490Z,100140
2014-08-26T14:12:22.694Z,100140
2014-08-26T14:12:40.881Z,100137
2014-08-26T14:12:59.069Z,100140
2014-08-26T14:13:17.274Z,100147
2014-08-26T14:13:35.461Z,100147
2014-08-26T14:13:53.649Z,100143
2014-08-26T14:14:11.855Z,100140
2014-08-26T14:14:30.042Z,100145
2014-08-26T14:14:48.230Z,100145
2014-08-26T14:15:06.417Z,100142
2014-08-26T14:15:24.621Z,100145
2014-08-26T14:15:42.809Z,100140
2014-08-26T14:16:00.996Z,100145
2014-08-26T14:16:19.203Z,100145
2014-08-26T14:16:37.390Z,100142
2014-08-26T14:16:55.578Z,100142
2014-08-26T14:17:13.781Z,100140
2014-08-26T14:17:31.969Z,100142
2014-08-26T14:17:50.172Z,100147
2014-08-26T14:18:08.360Z,100142
2014-08-26T14:18:26.549Z,100147
2014-08-26T14:18:44.737Z,100142
2014-08-26T14:19:02.940Z,100142
2014-08-26T14:19:21.127Z,100145
2014-08-26T14:19:39.318Z,100140
2014-08-26T14:19:57.505Z,100137
2014-08-26T14:20:15.709Z,100145
2014-08-26T14:20:33.898Z,100145
2014-08-26T14:20:52.086Z,100145
2014-08-26T14:21:10.289Z,100147
2014-08-26T14:21:28.476Z,100150
2014-08-26T14:21:46.666Z,100145
2014-08-26T14:22:04.869Z,100147
2014-08-26T14:22:23.056Z,100147
2014-08-26T14:22:41.246Z,100147
2014-08-26T14:22:59.449Z,100147
2014-08-26T14:23:17.636Z,100147
2014-08-26T14:23:35.824Z,100147
2014-08-26T14:23:54.013Z,100142
2014-08-26T14:24:12.217Z,100137
2014-08-26T14:24:30.404Z,100137
2014-08-26T14:24:48.594Z,100150
2014-08-26T14:25:06.797Z,100140
2014-08-26T14:25:25.000Z,100140
2014-08-26T14:25:43.172Z,100145
2014-08-26T14:26:01.377Z,100145
2014-08-26T14:26:19.564Z,100142
2014-08-26T14:26:37.767Z,100142
2014-08-26T14:26:55.957Z,100142
2014-08-26T14:27:14.160Z,100145
2014-08-26T14:27:32.348Z,100147
2014-08-26T14:27:50.535Z,100142
2014-08-26T14:28:08.740Z,100134
2014-08-26T14:28:26.928Z,100140
2014-08-26T14:28:45.115Z,100147
2014-08-26T14:29:03.320Z,100142
2014-08-26T14:29:21.508Z,100137
2014-08-26T14:29:39.695Z,100150
2014-08-26T14:29:57.898Z,100153
2014-08-26T14:30:16.088Z,100142
2014-08-26T14:30:34.275Z,100145
2014-08-26T14:30:52.479Z,100150
2014-08-26T14:31:10.668Z,100153
2014-08-26T14:31:28.856Z,100140
2014-08-26T14:31:47.043Z,100142
2014-08-26T14:32:05.246Z,100137
2014-08-26T14:32:23.436Z,100153
2014-08-26T14:32:41.623Z,100137
2014-08-26T14:32:59.826Z,100137
2014-08-26T14:33:18.016Z,100137
2014-08-26T14:33:36.203Z,100147
2014-08-26T14:33:54.406Z,100145
2014-08-26T14:34:12.594Z,100145
2014-08-26T14:34:30.783Z,100147
2014-08-26T14:34:48.987Z,100147
2014-08-26T14:35:07.174Z,100147
2014-08-26T14:35:25.379Z,100147
2014-08-26T14:35:43.567Z,100142
2014-08-26T14:36:01.754Z,100150
2014-08-26T14:36:19.942Z,100142
2014-08-26T14:36:38.147Z,100142
2014-08-26T14:36:56.334Z,100147
2014-08-26T14:37:14.522Z,100156
2014-08-26T14:37:32.727Z,100147
2014-08-26T14:37:50.914Z,100142
2014-08-26T14:38:09.102Z,100145
2014-08-26T14:38:27.289Z,100150
2014-08-26T14:38:45.495Z,100150
2014-08-26T14:39:03.682Z,100150
2014-08-26T14:39:21.870Z,100140
2014-08-26T14:39:40.076Z,100150
2014-08-26T14:39:58.263Z,100140
2014-08-26T14:40:16.451Z,100147
2014-08-26T14:40:34.638Z,100147
2014-08-26T14:40:52.842Z,100140
2014-08-26T14:41:11.030Z,100147
2014-08-26T14:41:29.217Z,100147
2014-08-26T14:41:47.422Z,100147
2014-08-26T14:42:05.610Z,100156
2014-08-26T14:42:23.797Z,100145
2014-08-26T14:42:42.001Z,100147
2014-08-26T14:43:00.190Z,100134
2014-08-26T14:43:18.378Z,100140
2014-08-26T14:43:36.565Z,100142
2014-08-26T14:43:54.770Z,100142
2014-08-26T14:44:12.958Z,100140
2014-08-26T14:44:31.145Z,100145
2014-08-26T14:44:49.348Z,100145
2014-08-26T14:45:07.539Z,100156
2014-08-26T14:45:25.742Z,100145
2014-08-26T14:45:43.929Z,100131
2014-08-26T14:46:02.135Z,100140
2014-08-26T14:46:20.322Z,100140
2014-08-26T14:46:38.510Z,100142
2014-08-26T14:46:56.697Z,100145
2014-08-26T14:47:14.901Z,100137
2014-08-26T14:47:33.089Z,100140
2014-08-26T14:47:51.276Z,100137
2014-08-26T14:48:09.481Z,100134
2014-08-26T14:48:27.669Z,100134
2014-08-26T14:48:45.856Z,100140
2014-08-26T14:49:04.059Z,100134
2014-08-26T14:49:22.250Z,100128
2014-08-26T14:49:40.437Z,100140
2014-08-26T14:49:58.625Z,100145
2014-08-26T14:50:16.829Z,100134
2014-08-26T14:50:35.017Z,100142
2014-08-26T14:50:53.204Z,100128
2014-08-26T14:51:11.392Z,100137
2014-08-26T14:51:29.598Z,100142
2014-08-26T14:51:47.785Z,100142
2014-08-26T14:52:05.973Z,100134
2014-08-26T14:52:24.162Z,100137
2014-08-26T14:52:42.365Z,100142
2014-08-26T14:53:00.553Z,100128
2014-08-26T14:53:18.740Z,100142
2014-08-26T14:53:36.930Z,100137
2014-08-26T14:53:55.133Z,100140
2014-08-26T14:54:13.336Z,100147
2014-08-26T14:54:31.526Z,100131
2014-08-26T14:54:49.713Z,100134
2014-08-26T14:55:07.901Z,100140
2014-08-26T14:55:26.104Z,100137
2014-08-26T14:55:44.292Z,100140
2014-08-26T14:56:02.480Z,100142
2014-08-26T14:56:20.683Z,100137
2014-08-26T14:56:38.873Z,100140
2014-08-26T14:56:57.061Z,100134
2014-08-26T14:57:15.264Z,100142
2014-08-26T14:57:33.452Z,100142
2014-08-26T14:57:51.640Z,100142
2014-08-26T14:58:09.843Z,100142
2014-08-26T14:58:28.031Z,100142
2014-08-26T14:58:46.220Z,100140
2014-08-26T14:59:04.408Z,100140
2014-08-26T14:59:22.611Z,100137
2014-08-26T14:59:40.801Z,100140
2014-08-26T14:59:58.989Z,100137
2014-08-26T15:00:17.192Z,100145
2014-08-26T15:00:35.379Z,100137
2014-08-26T15:00:53.569Z,100147
2014-08-26T15:01:11.756Z,100140
2014-08-26T15:01:29.959Z,100134
2014-08-26T15:01:48.149Z,100145
2014-08-26T15:02:06.352Z,100142
2014-08-26T15:02:24.540Z,100153
2014-08-26T15:02:42.743Z,100140
2014-08-26T15:03:00.947Z,100137
2014-08-26T15:03:19.134Z,100140
2014-08-26T15:03:37.322Z,100142
2014-08-26T15:03:55.527Z,100142
2014-08-26T15:04:13.714Z,100145
2014-08-26T15:04:31.902Z,100147
2014-08-26T15:04:50.105Z,100145
2014-08-26T15:05:08.296Z,100145
2014-08-26T15:05:26.499Z,100153
2014-08-26T15:05:44.686Z,100145
2014-08-26T15:06:02.876Z,100147
2014-08-26T15:06:21.079Z,100145
2014-08-26T15:06:39.266Z,100137
2014-08-26T15:06:57.454Z,100156
2014-08-26T15:07:15.643Z,100145
2014-08-26T15:07:33.846Z,100150
2014-08-26T15:07:52.034Z,100150
2014-08-26T15:08:10.223Z,100140
2014-08-26T15:08:28.427Z,100153
2014-08-26T15:08:46.614Z,100137
2014-08-26T15:09:04.817Z,100137
2014-08-26T15:09:23.007Z,100147
2014-08-26T15:09:41.194Z,100140
2014-08-26T15:09:59.397Z,100150
2014-08-26T15:10:17.587Z,100140
2014-08-26T15:10:35.790Z,100142
2014-08-26T15:10:53.977Z,100142
2014-08-26T15:11:12.165Z,100147
2014-08-26T15:11:30.370Z,100147
2014-08-26T15:11:48.558Z,100153
2014-08-26T15:12:06.745Z,100153
2014-08-26T15:12:24.935Z,100147
2014-08-26T15:12:43.138Z,100153
2014-08-26T15:13:01.325Z,100150
2014-08-26T15:13:19.528Z,100147
2014-08-26T15:13:37.718Z,100145
2014-08-26T15:13:55.905Z,100145
2014-08-26T15:14:14.108Z,100159
2014-08-26T15:14:32.298Z,100147
2014-08-26T15:14:50.485Z,100145
2014-08-26T15:15:08.673Z,100147
2014-08-26T15:15:26.876Z,100156
2014-08-26T15:15:45.066Z,100156
2014-08-26T15:16:03.253Z,100145
2014-08-26T15:16:21.441Z,100145
2014-08-26T15:16:39.647Z,100156
2014-08-26T15:16:57.834Z,100156
2014-08-26T15:17:16.037Z,100156
2014-08-26T15:17:34.225Z,100142
2014-08-26T15:17:52.413Z,100156
2014-08-26T15:18:10.601Z,100156
2014-08-26T15:18:28.804Z,100145
2014-08-26T15:18:46.993Z,100150
2014-08-26T15:19:05.181Z,100147
2014-08-26T15:19:23.368Z,100153
2014-08-26T15:19:41.572Z,100150
2014-08-26T15:19:59.761Z,100147
2014-08-26T15:20:17.949Z,100150
2014-08-26T15:20:36.152Z,100161
2014-08-26T15:20:54.342Z,100156
2014-08-26T15:21:12.530Z,100147
2014-08-26T15:21:30.733Z,100159
2014-08-26T15:21:48.920Z,100159
2014-08-26T15:22:07.110Z,100145
2014-08-26T15:22:25.297Z,100156
2014-08-26T15:22:43.485Z,100150
2014-08-26T15:23:01.689Z,100150
2014-08-26T15:23:19.876Z,100153
2014-08-26T15:23:38.080Z,100156
2014-08-26T15:23:56.267Z,100159
2014-08-26T15:24:14.457Z,100159
2014-08-26T15:24:32.660Z,100159
2014-08-26T15:24:50.847Z,100153
2014-08-26T15:25:09.038Z,100150
2014-08-26T15:25:27.225Z,100153
2014-08-26T15:25:45.428Z,100150
2014-08-26T15:26:03.616Z,100156
2014-08-26T15:26:21.851Z,100153
2014-08-26T15:26:40.039Z,100159
2014-08-26T15:26:58.242Z,100153
2014-08-26T15:27:16.431Z,100159
2014-08-26T15:27:34.619Z,100159
2014-08-26T15:27:52.822Z,100159
2014-08-26T15:28:11.009Z,100159
2014-08-26T15:28:29.200Z,100159
2014-08-26T15:28:47.403Z,100159
2014-08-26T15:29:05.591Z,100161
2014-08-26T15:29:23.780Z,100159
2014-08-26T15:29:41.983Z,100159
2014-08-26T15:30:00.171Z,100161
2014-08-26T15:30:18.358Z,100161
2014-08-26T15:30:36.548Z,100156
2014-08-26T15:30:54.751Z,100159
2014-08-26T15:31:12.954Z,100161
2014-08-26T15:31:31.143Z,100159
2014-08-26T15:31:49.331Z,100159
2014-08-26T15:32:07.534Z,100153
2014-08-26T15:32:25.722Z,100156
2014-08-26T15:32:43.910Z,100161
2014-08-26T15:33:02.098Z,100159
2014-08-26T15:33:20.301Z,100153
2014-08-26T15:33:38.491Z,100159
2014-08-26T15:33:56.679Z,100153
2014-08-26T15:34:14.882Z,100161
2014-08-26T15:34:33.069Z,100150
2014-08-26T15:34:51.274Z,100161
2014-08-26T15:35:09.478Z,100153
2014-08-26T15:35:27.665Z,100159
2014-08-26T15:35:45.855Z,100161
2014-08-26T15:36:04.042Z,100167
2014-08-26T15:36:22.245Z,100150
2014-08-26T15:36:40.433Z,100156
2014-08-26T15:36:58.622Z,100170
2014-08-26T15:37:16.825Z,100164
2014-08-26T15:37:35.013Z,100161
2014-08-26T15:37:53.202Z,100164
2014-08-26T15:38:11.405Z,100147
2014-08-26T15:38:29.593Z,100156
2014-08-26T15:38:47.796Z,100156
2014-08-26T15:39:05.986Z,100161
2014-08-26T15:39:24.173Z,100159
2014-08-26T15:39:42.376Z,100159
2014-08-26T15:40:00.566Z,100159
2014-08-26T15:40:18.753Z,100156
2014-08-26T15:40:36.956Z,100164
2014-08-26T15:40:55.144Z,100164
2014-08-26T15:41:13.349Z,100167
2014-08-26T15:41:31.536Z,100164
2014-08-26T15:41:49.724Z,100161
2014-08-26T15:42:07.929Z,100150
2014-08-26T15:42:26.117Z,100159
2014-08-26T15:42:44.304Z,100159
2014-08-26T15:43:02.507Z,100161
2014-08-26T15:43:20.697Z,100164
2014-08-26T15:43:38.884Z,100156
2014-08-26T15:43:57.072Z,100161
2014-08-26T15:44:15.278Z,100159
2014-08-26T15:44:33.465Z,100159
2014-08-26T15:44:51.653Z,100156
2014-08-26T15:45:09.856Z,100161
2014-08-26T15:45:28.044Z,100156
2014-08-26T15:45:46.248Z,100153
2014-08-26T15:46:04.435Z,100156
2014-08-26T15:46:22.625Z,100159
2014-08-26T15:46:40.828Z,100147
2014-08-26T15:46:59.015Z,100159
2014-08-26T15:47:17.218Z,100147
2014-08-26T15:47:35.409Z,100161
2014-08-26T15:47:53.596Z,100156
2014-08-26T15:48:11.799Z,100159
2014-08-26T15:48:29.989Z,100159
2014-08-26T15:48:48.176Z,100147
2014-08-26T15:49:06.380Z,100147
2014-08-26T15:49:24.567Z,100156
2014-08-26T15:49:42.756Z,100147
2014-08-26T15:50:00.959Z,100150
2014-08-26T15:50:19.146Z,100161
2014-08-26T15:50:37.336Z,100164
2014-08-26T15:50:55.523Z,100153
2014-08-26T15:51:13.726Z,100156
2014-08-26T15:51:31.917Z,100156
2014-08-26T15:51:50.104Z,100159
2014-08-26T15:52:08.307Z,100156
2014-08-26T15:52:26.495Z,100161
2014-08-26T15:52:44.683Z,100159
2014-08-26T15:53:02.871Z,100167
2014-08-26T15:53:21.058Z,100161
2014-08-26T15:53:39.264Z,100161
2014-08-26T15:53:57.451Z,100161
2014-08-26T15:54:15.639Z,100167
2014-08-26T15:54:33.842Z,100153
2014-08-26T15:54:52.031Z,100153
2014-08-26T15:55:10.234Z,100173
2014-08-26T15:55:28.422Z,100161
2014-08-26T15:55:46.611Z,100153
2014-08-26T15:56:04.814Z,100159
2014-08-26T15:56:23.002Z,100159
2014-08-26T15:56:41.189Z,100147
2014-08-26T15:56:59.396Z,100150
2014-08-26T15:57:17.583Z,100159
2014-08-26T15:57:35.771Z,100153
2014-08-26T15:57:53.976Z,100159
2014-08-26T15:58:12.163Z,100159
2014-08-26T15:58:30.351Z,100159
2014-08-26T15:58:48.538Z,100173
2014-08-26T15:59:06.742Z,100161
2014-08-26T15:59:24.930Z,100156
2014-08-26T15:59:43.117Z,100161
2014-08-26T16:00:01.322Z,100153
2014-08-26T16:00:19.510Z,100156
2014-08-26T16:00:37.697Z,100156
2014-08-26T16:00:55.901Z,100167
2014-08-26T16:01:14.090Z,100153
2014-08-26T16:01:32.278Z,100161
2014-08-26T16:01:50.481Z,100156
2014-08-26T16:02:08.671Z,100161
2014-08-26T16:02:26.859Z,100158
2014-08-26T16:02:45.046Z,100159
2014-08-26T16:03:03.249Z,100153
2014-08-26T16:03:21.439Z,100159
2014-08-26T16:03:39.642Z,100156
2014-08-26T16:03:57.829Z,100158
2014-08-26T16:04:16.019Z,100145
2014-08-26T16:04:34.222Z,100156
2014-08-26T16:04:52.410Z,100150
2014-08-26T16:05:10.597Z,100159
2014-08-26T16:05:28.787Z,100150
2014-08-26T16:05:46.990Z,100150
2014-08-26T16:06:05.177Z,100156
2014-08-26T16:06:23.367Z,100153
2014-08-26T16:06:41.570Z,100150
2014-08-26T16:06:59.773Z,100158
2014-08-26T16:07:17.960Z,100150
2014-08-26T16:07:36.150Z,100153
2014-08-26T16:07:54.353Z,100158
2014-08-26T16:08:12.541Z,100156
2014-08-26T16:08:30.730Z,100158
2014-08-26T16:08:48.933Z,100161
2014-08-26T16:09:07.121Z,100156
2014-08-26T16:09:25.308Z,100158
2014-08-26T16:09:43.513Z,100161
2014-08-26T16:10:01.701Z,100161
2014-08-26T16:10:19.888Z,100167
2014-08-26T16:10:38.093Z,100156
2014-08-26T16:10:56.281Z,100161
2014-08-26T16:11:14.468Z,100161
2014-08-26T16:11:32.672Z,100167
2014-08-26T16:11:50.860Z,100147
2014-08-26T16:12:09.063Z,100158
2014-08-26T16:12:27.251Z,100164
2014-08-26T16:12:45.441Z,100158
2014-08-26T16:13:03.644Z,100167
2014-08-26T16:13:21.832Z,100158
2014-08-26T16:13:40.035Z,100158
2014-08-26T16:13:58.224Z,100164
2014-08-26T16:14:16.412Z,100158
2014-08-26T16:14:34.599Z,100158
2014-08-26T16:14:52.805Z,100164
